Time;durP1;ratioP1;P1;durP2;ratioP2;P2;SDS_P1;SDS_P2;PMS_P1;PMS_P2;Temp;Humidity;BMP_temperature;BMP_pressure;BME280_temperature;BME280_humidity;BME280_pressure;Samples;Min_cycle;Max_cycle;Signal;HPM_P1;HPM_P2
2023/12/22 00:02:23;;;;;;;3.50;1.03;;;4.60;1.00;;;;;;4404979;28;656129;-77
2023/12/22 00:05:10;;;;;;;8.90;2.00;;;4.60;1.00;;;;;;4432101;28;656076;-79
2023/12/22 00:07:57;;;;;;;6.13;1.40;;;4.60;18.50;;;;;;4412314;28;655667;-77
2023/12/22 00:10:45;;;;;;;6.17;1.27;;;4.50;99.90;;;;;;4427455;28;657052;-78
2023/12/22 00:13:33;;;;;;;13.03;2.10;;;4.50;53.40;;;;;;4430291;28;656673;-78
2023/12/22 00:16:20;;;;;;;12.07;1.50;;;4.40;99.90;;;;;;4401996;28;658500;-78
2023/12/22 00:19:08;;;;;;;8.07;1.57;;;4.40;99.90;;;;;;4407834;28;657550;-77
2023/12/22 00:21:56;;;;;;;6.60;1.60;;;4.40;1.00;;;;;;4426738;28;657010;-77
2023/12/22 00:24:43;;;;;;;6.93;1.60;;;4.50;99.90;;;;;;4410514;28;655366;-77
2023/12/22 00:27:30;;;;;;;8.27;1.83;;;4.40;99.90;;;;;;4428541;28;656912;-78
2023/12/22 00:30:19;;;;;;;8.80;1.83;;;4.50;86.70;;;;;;4411478;28;656799;-78
2023/12/22 00:33:06;;;;;;;14.13;2.23;;;4.40;99.90;;;;;;4424292;28;655968;-79
2023/12/22 00:35:53;;;;;;;10.97;1.60;;;4.40;99.90;;;;;;4403228;28;657629;-78
2023/12/22 00:38:40;;;;;;;7.18;2.20;;;4.30;1.00;;;;;;4427803;28;658946;-79
2023/12/22 00:41:28;;;;;;;6.90;1.33;;;4.10;1.00;;;;;;4405355;28;655659;-77
2023/12/22 00:44:15;;;;;;;13.47;1.93;;;4.10;99.90;;;;;;4432350;28;656823;-78
2023/12/22 00:47:04;;;;;;;12.27;2.10;;;4.00;99.90;;;;;;4416295;28;658698;-77
2023/12/22 00:49:51;;;;;;;8.67;1.50;;;3.90;99.90;;;;;;4420496;28;657227;-77
2023/12/22 00:52:38;;;;;;;3.77;0.70;;;3.90;99.90;;;;;;4404891;28;657019;-77
2023/12/22 00:55:26;;;;;;;5.33;1.77;;;3.90;99.90;;;;;;4426772;28;657656;-77
2023/12/22 00:58:13;;;;;;;6.23;1.73;;;3.90;99.90;;;;;;4405388;28;656645;-77
2023/12/22 01:01:00;;;;;;;4.83;1.47;;;3.90;99.90;;;;;;4419792;28;657709;-76
2023/12/22 01:03:49;;;;;;;2.80;1.00;;;3.90;99.90;;;;;;4413037;28;656662;-77
2023/12/22 01:06:38;;;;;;;2.77;0.90;;;3.90;99.90;;;;;;4427187;28;656185;-77
2023/12/22 01:09:26;;;;;;;3.40;0.93;;;3.90;99.90;;;;;;4405672;28;657570;-77
2023/12/22 01:12:13;;;;;;;2.37;1.00;;;3.90;99.90;;;;;;4404802;28;656716;-77
2023/12/22 01:15:00;;;;;;;3.13;1.37;;;3.80;99.90;;;;;;4422029;28;656990;-77
2023/12/22 01:17:47;;;;;;;8.87;1.97;;;3.80;99.90;;;;;;4409325;28;656522;-76
2023/12/22 01:20:36;;;;;;;4.43;1.50;;;3.70;99.90;;;;;;4429985;28;657073;-77
2023/12/22 01:23:25;;;;;;;4.10;1.67;;;3.70;99.90;;;;;;4410178;28;657432;-77
2023/12/22 01:26:12;;;;;;;12.93;1.70;;;3.70;99.90;;;;;;4427260;28;656885;-77
2023/12/22 01:28:59;;;;;;;7.10;1.70;;;3.80;99.90;;;;;;4395565;28;658027;-76
2023/12/22 01:31:46;;;;;;;6.63;0.70;;;3.90;99.90;;;;;;4425715;28;657024;-77
2023/12/22 01:34:33;;;;;;;6.60;1.45;;;3.90;99.90;;;;;;4402032;28;656469;-77
2023/12/22 01:37:23;;;;;;;8.47;1.30;;;4.00;99.90;;;;;;4429221;28;657038;-77
2023/12/22 01:40:10;;;;;;;5.73;1.40;;;4.00;99.90;;;;;;4408081;28;656934;-77
2023/12/22 01:42:57;;;;;;;6.43;1.23;;;4.00;99.90;;;;;;4417598;28;656268;-76
2023/12/22 01:45:45;;;;;;;10.50;1.60;;;3.90;99.90;;;;;;4432435;28;656757;-77
2023/12/22 01:48:32;;;;;;;5.50;1.37;;;3.90;99.90;;;;;;4429810;28;657232;-77
2023/12/22 01:51:19;;;;;;;5.33;1.53;;;3.90;99.90;;;;;;4402920;28;656876;-77
2023/12/22 01:54:07;;;;;;;9.82;1.90;;;3.90;99.90;;;;;;4427471;28;657351;-77
2023/12/22 01:56:55;;;;;;;9.03;1.13;;;3.90;99.90;;;;;;4396488;28;657647;-77
2023/12/22 01:59:42;;;;;;;5.38;1.40;;;3.90;99.90;;;;;;4403509;28;656955;-76
2023/12/22 02:02:30;;;;;;;5.50;1.50;;;3.90;99.90;;;;;;4433966;28;656460;-76
2023/12/22 02:05:17;;;;;;;5.53;1.27;;;3.80;99.90;;;;;;4429525;28;656320;-76
2023/12/22 02:08:05;;;;;;;7.20;1.50;;;3.80;99.90;;;;;;4402348;28;658055;-77
2023/12/22 02:10:54;;;;;;;5.50;1.20;;;3.80;99.90;;;;;;4415500;28;656149;-76
2023/12/22 02:13:41;;;;;;;2.80;0.73;;;3.70;99.90;;;;;;4420771;28;656129;-76
2023/12/22 02:16:32;;;;;;;5.10;1.10;;;3.80;99.90;;;;;;4404840;28;656490;-76
2023/12/22 02:19:26;;;;;;;0.83;0.47;;;3.80;99.90;;;;;;4405467;28;657042;-76
2023/12/22 02:22:13;;;;;;;5.73;1.10;;;3.70;99.90;;;;;;4412399;28;656576;-76
2023/12/22 02:25:02;;;;;;;4.40;1.07;;;3.70;99.90;;;;;;4431516;28;656507;-76
2023/12/22 02:27:50;;;;;;;3.60;1.13;;;3.60;99.90;;;;;;4401388;28;657848;-76
2023/12/22 02:30:40;;;;;;;3.10;1.30;;;3.50;99.90;;;;;;4406223;28;656615;-75
2023/12/22 02:33:28;;;;;;;2.80;0.83;;;3.40;99.90;;;;;;4414778;28;656401;-76
2023/12/22 02:36:15;;;;;;;1.60;0.80;;;3.40;99.90;;;;;;4422102;28;658234;-76
2023/12/22 02:39:02;;;;;;;3.90;1.17;;;3.40;99.90;;;;;;4421844;28;656826;-76
2023/12/22 02:41:51;;;;;;;9.63;1.10;;;3.30;99.90;;;;;;4435430;28;657486;-76
2023/12/22 02:44:39;;;;;;;6.20;1.47;;;3.30;99.90;;;;;;4408386;28;656486;-76
2023/12/22 02:47:27;;;;;;;2.17;0.93;;;3.40;99.90;;;;;;4425031;28;657161;-77
2023/12/22 02:50:15;;;;;;;5.03;1.60;;;3.40;99.90;;;;;;4394342;28;656940;-76
2023/12/22 02:53:03;;;;;;;3.20;1.07;;;3.40;99.90;;;;;;4403437;28;656585;-76
2023/12/22 02:55:50;;;;;;;3.97;1.07;;;3.40;99.90;;;;;;4427850;28;657833;-76
2023/12/22 02:58:39;;;;;;;2.47;1.23;;;3.40;99.90;;;;;;4420185;28;656289;-76
2023/12/22 03:01:26;;;;;;;0.80;0.50;;;3.40;99.90;;;;;;4432398;28;656501;-77
2023/12/22 03:04:13;;;;;;;1.70;0.80;;;3.50;99.90;;;;;;4401466;28;656376;-76
2023/12/22 03:07:00;;;;;;;2.70;0.83;;;3.50;99.90;;;;;;4420080;28;657581;-75
2023/12/22 03:09:47;;;;;;;5.43;1.47;;;3.50;99.90;;;;;;4408651;28;656694;-76
2023/12/22 03:12:35;;;;;;;8.87;1.80;;;3.50;99.90;;;;;;4422542;28;657994;-75
2023/12/22 03:15:24;;;;;;;3.00;1.07;;;3.60;99.90;;;;;;4427904;28;656417;-76
2023/12/22 03:18:11;;;;;;;8.30;1.17;;;3.50;99.90;;;;;;4427129;28;656831;-76
2023/12/22 03:20:58;;;;;;;5.60;0.80;;;3.60;99.90;;;;;;4406816;28;656476;-75
2023/12/22 03:23:45;;;;;;;2.63;1.23;;;3.60;99.90;;;;;;4429164;28;658033;-76
2023/12/22 03:26:33;;;;;;;12.17;1.53;;;3.60;99.90;;;;;;4407727;28;656669;-75
2023/12/22 03:29:20;;;;;;;3.43;1.30;;;3.50;99.90;;;;;;4426396;28;658857;-76
2023/12/22 03:32:09;;;;;;;5.83;1.00;;;3.50;99.90;;;;;;4413972;28;657532;-75
2023/12/22 03:34:56;;;;;;;2.40;0.70;;;3.50;99.90;;;;;;4425126;28;657088;-76
2023/12/22 03:37:43;;;;;;;5.60;1.80;;;3.50;99.90;;;;;;4403386;28;656626;-75
2023/12/22 03:40:30;;;;;;;1.33;0.70;;;3.50;99.90;;;;;;4428690;28;657640;-76
2023/12/22 03:43:18;;;;;;;4.20;1.20;;;3.50;99.90;;;;;;4402701;28;656393;-75
2023/12/22 03:46:05;;;;;;;6.00;1.00;;;3.50;99.90;;;;;;4420906;28;657020;-75
2023/12/22 03:48:54;;;;;;;5.20;1.27;;;3.40;99.90;;;;;;4419631;28;656548;-75
2023/12/22 03:51:41;;;;;;;6.73;1.17;;;3.50;99.90;;;;;;4428317;28;656221;-76
2023/12/22 03:54:28;;;;;;;6.70;1.63;;;3.40;99.90;;;;;;4402597;28;656474;-75
2023/12/22 03:57:15;;;;;;;1.37;0.77;;;3.50;99.90;;;;;;4424992;28;657381;-75
2023/12/22 04:00:04;;;;;;;3.53;1.13;;;3.50;99.90;;;;;;4406037;28;656313;-75
2023/12/22 04:02:51;;;;;;;6.33;0.97;;;3.50;99.90;;;;;;4422889;28;656845;-76
2023/12/22 04:05:39;;;;;;;5.20;1.27;;;3.40;99.90;;;;;;4406731;28;656768;-75
2023/12/22 04:08:27;;;;;;;6.00;1.30;;;3.40;99.90;;;;;;4425668;28;656518;-76
2023/12/22 04:11:14;;;;;;;10.17;1.70;;;3.50;99.90;;;;;;4407615;28;657483;-76
2023/12/22 04:14:01;;;;;;;8.87;1.40;;;3.50;99.90;;;;;;4422505;28;657655;-77
2023/12/22 04:16:48;;;;;;;6.57;1.70;;;3.50;99.90;;;;;;4403620;28;657346;-75
2023/12/22 04:19:37;;;;;;;9.43;2.00;;;3.50;99.90;;;;;;4421085;28;657652;-75
2023/12/22 04:22:25;;;;;;;12.23;1.40;;;3.40;99.90;;;;;;4402304;28;656140;-75
2023/12/22 04:25:12;;;;;;;1.50;0.73;;;3.40;99.90;;;;;;4401498;28;657486;-75
2023/12/22 04:28:00;;;;;;;11.40;1.50;;;3.40;99.90;;;;;;4425641;28;657323;-75
2023/12/22 04:30:47;;;;;;;7.53;1.47;;;3.30;99.90;;;;;;4426542;28;657802;-76
2023/12/22 04:33:34;;;;;;;4.27;1.20;;;3.40;99.90;;;;;;4402864;28;657177;-75
2023/12/22 04:36:21;;;;;;;6.63;1.33;;;3.40;99.90;;;;;;4418601;28;656265;-75
2023/12/22 04:39:10;;;;;;;6.95;1.70;;;3.20;99.90;;;;;;4400615;28;656802;-76
2023/12/22 04:41:57;;;;;;;4.53;1.07;;;3.10;99.90;;;;;;4420474;28;656795;-75
2023/12/22 04:44:45;;;;;;;8.50;1.17;;;3.10;99.90;;;;;;4425376;28;656703;-75
2023/12/22 04:47:32;;;;;;;7.70;1.47;;;3.00;99.90;;;;;;4421133;28;657683;-76
2023/12/22 04:50:19;;;;;;;8.70;1.67;;;2.90;99.90;;;;;;4395524;28;656033;-75
2023/12/22 04:53:06;;;;;;;11.10;1.67;;;2.90;99.90;;;;;;4428604;28;656579;-75
2023/12/22 04:55:55;;;;;;;9.53;1.60;;;2.90;99.90;;;;;;4406293;28;657479;-75
2023/12/22 04:58:42;;;;;;;3.60;0.77;;;2.90;99.90;;;;;;4424330;28;656952;-75
2023/12/22 05:01:29;;;;;;;7.50;0.60;;;2.70;99.90;;;;;;4420768;28;656960;-77
2023/12/22 05:04:17;;;;;;;6.00;0.97;;;2.20;99.90;;;;;;4424815;28;655691;-75
2023/12/22 05:07:06;;;;;;;6.40;1.47;;;1.70;99.90;;;;;;4402408;28;657038;-75
2023/12/22 05:09:54;;;;;;;0.55;0.35;;;1.30;99.90;;;;;;4403384;28;656514;-75
2023/12/22 05:12:43;;;;;;;4.13;0.80;;;0.80;99.90;;;;;;4418864;28;656300;-75
2023/12/22 05:15:30;;;;;;;3.87;0.80;;;0.60;99.90;;;;;;4406760;28;657751;-75
2023/12/22 05:18:17;;;;;;;0.80;0.40;;;0.50;99.90;;;;;;4415690;28;657624;-75
2023/12/22 05:21:05;;;;;;;2.40;0.90;;;0.50;99.90;;;;;;4416020;28;656617;-75
2023/12/22 05:23:52;;;;;;;1.33;0.67;;;0.40;99.90;;;;;;4412679;28;657156;-75
2023/12/22 05:26:40;;;;;;;1.50;0.60;;;0.40;99.90;;;;;;4417376;28;656425;-75
2023/12/22 05:29:28;;;;;;;3.07;1.03;;;0.40;99.90;;;;;;4417496;28;656623;-75
2023/12/22 05:32:16;;;;;;;3.03;0.87;;;0.40;99.90;;;;;;4388615;28;656528;-75
2023/12/22 05:35:03;;;;;;;2.80;1.23;;;0.40;99.90;;;;;;4396525;28;656715;-75
2023/12/22 05:37:50;;;;;;;4.30;0.90;;;0.40;99.90;;;;;;4419266;28;657660;-76
2023/12/22 05:40:37;;;;;;;1.42;0.43;;;0.20;99.90;;;;;;4403093;28;656358;-75
2023/12/22 05:43:25;;;;;;;4.37;1.20;;;0.20;99.90;;;;;;4420983;28;656343;-75
2023/12/22 05:46:13;;;;;;;3.03;0.67;;;0.20;99.90;;;;;;4416049;28;657370;-75
2023/12/22 05:49:00;;;;;;;4.73;1.00;;;0.20;99.90;;;;;;4392737;28;657499;-76
2023/12/22 05:51:48;;;;;;;3.67;0.80;;;0.30;99.90;;;;;;4397560;28;656986;-76
2023/12/22 05:54:35;;;;;;;6.43;1.27;;;0.10;99.90;;;;;;4410854;28;658051;-76
2023/12/22 05:57:22;;;;;;;0.90;0.40;;;0.20;99.90;;;;;;4415900;28;656495;-76
2023/12/22 06:00:11;;;;;;;5.60;0.80;;;0.20;99.90;;;;;;4414441;28;656564;-76
2023/12/22 06:02:59;;;;;;;3.73;0.73;;;0.30;99.90;;;;;;4396098;28;656724;-76
2023/12/22 06:05:47;;;;;;;1.77;0.70;;;0.30;99.90;;;;;;4413049;28;656443;-76
2023/12/22 06:08:34;;;;;;;7.73;1.00;;;0.30;99.90;;;;;;4389175;28;657476;-75
2023/12/22 06:11:21;;;;;;;6.77;0.80;;;0.30;99.90;;;;;;4414299;28;656825;-76
2023/12/22 06:14:09;;;;;;;2.70;0.97;;;0.30;99.90;;;;;;4374615;28;656559;-75
2023/12/22 06:16:57;;;;;;;7.63;1.20;;;0.30;99.90;;;;;;4419937;28;657600;-75
2023/12/22 06:19:46;;;;;;;3.27;0.83;;;0.30;99.90;;;;;;4403020;28;657361;-75
2023/12/22 06:22:33;;;;;;;6.33;1.43;;;0.20;99.90;;;;;;4402019;28;656427;-76
2023/12/22 06:25:20;;;;;;;3.00;0.73;;;0.20;99.90;;;;;;4424388;28;657006;-75
2023/12/22 06:28:07;;;;;;;6.80;1.20;;;0.20;99.90;;;;;;4405461;28;656834;-74
2023/12/22 06:30:55;;;;;;;29.80;1.40;;;0.30;99.90;;;;;;4428523;28;657633;-74
2023/12/22 06:33:42;;;;;;;10.83;1.73;;;0.30;99.90;;;;;;4415187;28;657792;-75
2023/12/22 06:36:31;;;;;;;4.63;1.03;;;0.30;99.90;;;;;;4428591;28;658740;-75
2023/12/22 06:39:19;;;;;;;6.67;1.07;;;0.30;99.90;;;;;;4405064;28;656960;-74
2023/12/22 06:42:10;;;;;;;5.87;2.80;;;0.50;99.90;;;;;;4421170;28;656986;-74
2023/12/22 06:44:57;;;;;;;15.67;1.50;;;0.50;99.90;;;;;;4408025;28;656194;-74
2023/12/22 06:47:45;;;;;;;7.20;1.07;;;0.70;99.90;;;;;;4419446;28;658861;-75
2023/12/22 06:50:32;;;;;;;6.03;1.10;;;0.60;99.90;;;;;;4427910;28;656967;-74
2023/12/22 06:53:21;;;;;;;5.47;1.73;;;0.60;99.90;;;;;;4431285;28;656839;-74
2023/12/22 06:56:16;;;;;;;11.83;1.90;;;0.60;99.90;;;;;;4405058;28;657049;-74
2023/12/22 06:59:03;;;;;;;11.13;1.63;;;0.60;99.90;;;;;;4401868;28;657625;-74
2023/12/22 07:01:51;;;;;;;4.68;1.33;;;0.70;99.90;;;;;;4425907;28;658308;-74
2023/12/22 07:04:38;;;;;;;6.53;1.80;;;0.70;99.90;;;;;;4404715;28;656495;-74
2023/12/22 07:07:25;;;;;;;4.13;1.13;;;0.60;99.90;;;;;;4426575;28;658166;-75
2023/12/22 07:10:14;;;;;;;8.57;2.10;;;0.50;99.90;;;;;;4422739;28;657323;-75
2023/12/22 07:13:01;;;;;;;11.63;1.93;;;0.50;99.90;;;;;;4420700;28;656445;-74
2023/12/22 07:15:48;;;;;;;7.97;1.77;;;0.60;99.90;;;;;;4405919;28;657870;-74
2023/12/22 07:18:38;;;;;;;4.93;1.80;;;0.60;99.90;;;;;;4426230;28;657276;-75
2023/12/22 07:21:25;;;;;;;7.67;2.07;;;0.70;99.90;;;;;;4402785;28;657306;-74
2023/12/22 07:24:12;;;;;;;3.80;1.50;;;0.80;99.90;;;;;;4406155;28;657014;-75
2023/12/22 07:27:01;;;;;;;3.40;0.83;;;0.80;99.90;;;;;;4425873;28;657721;-75
2023/12/22 07:29:49;;;;;;;6.97;2.07;;;0.90;99.90;;;;;;4407765;28;657655;-75
2023/12/22 07:32:36;;;;;;;13.30;2.63;;;0.80;99.90;;;;;;4429437;28;656867;-75
2023/12/22 07:35:23;;;;;;;9.87;2.80;;;0.80;99.90;;;;;;4408251;28;658332;-74
2023/12/22 07:38:10;;;;;;;15.37;2.93;;;0.80;99.90;;;;;;4430391;28;657090;-75
2023/12/22 07:40:58;;;;;;;11.97;2.73;;;0.90;99.90;;;;;;4405965;28;658289;-75
2023/12/22 07:43:47;;;;;;;5.23;2.00;;;0.80;99.90;;;;;;4425091;28;657948;-75
2023/12/22 07:46:34;;;;;;;7.50;1.77;;;0.90;99.90;;;;;;4401852;28;657085;-75
2023/12/22 07:49:21;;;;;;;13.57;3.37;;;0.90;99.90;;;;;;4430539;28;657267;-75
2023/12/22 07:52:08;;;;;;;6.03;1.83;;;0.80;99.90;;;;;;4401684;28;657556;-76
2023/12/22 07:54:55;;;;;;;9.50;2.03;;;0.90;99.90;;;;;;4426019;28;657318;-76
2023/12/22 07:57:43;;;;;;;8.77;2.27;;;1.00;99.90;;;;;;4402628;28;656745;-76
2023/12/22 08:00:31;;;;;;;11.07;3.10;;;1.10;99.90;;;;;;4425923;28;656991;-77
2023/12/22 08:03:19;;;;;;;13.88;2.83;;;1.10;99.90;;;;;;4394892;28;657979;-76
2023/12/22 08:06:07;;;;;;;12.80;3.33;;;1.00;99.90;;;;;;4425654;28;658132;-75
2023/12/22 08:08:55;;;;;;;7.97;2.33;;;1.00;99.90;;;;;;4397086;28;657994;-76
2023/12/22 08:11:46;;;;;;;9.75;3.08;;;1.00;99.90;;;;;;4403115;28;656787;-76
2023/12/22 08:14:33;;;;;;;10.57;3.33;;;1.10;99.90;;;;;;4401247;28;656245;-75
2023/12/22 08:17:22;;;;;;;17.47;4.03;;;1.10;99.90;;;;;;4420765;28;657643;-76
2023/12/22 08:20:10;;;;;;;10.73;3.50;;;1.20;99.90;;;;;;4392450;28;657592;-76
2023/12/22 08:22:57;;;;;;;13.30;4.30;;;1.30;99.90;;;;;;4415196;28;657147;-76
2023/12/22 08:25:45;;;;;;;10.00;3.60;;;1.60;99.90;;;;;;4420954;28;658456;-76
2023/12/22 08:28:32;;;;;;;10.57;3.83;;;2.00;99.90;;;;;;4427132;28;658171;-76
2023/12/22 08:31:19;;;;;;;12.43;3.93;;;1.90;99.90;;;;;;4400199;28;657901;-77
2023/12/22 08:34:08;;;;;;;7.38;2.90;;;1.80;99.90;;;;;;4416758;28;657927;-77
2023/12/22 08:36:55;;;;;;;6.83;2.70;;;1.60;99.90;;;;;;4394056;28;657471;-77
2023/12/22 08:39:42;;;;;;;14.43;4.03;;;1.60;99.90;;;;;;4413521;28;656874;-76
2023/12/22 08:42:30;;;;;;;17.70;4.27;;;1.50;99.90;;;;;;4424565;28;658066;-77
2023/12/22 08:45:17;;;;;;;10.07;2.93;;;1.70;99.90;;;;;;4411321;28;658065;-76
2023/12/22 08:48:07;;;;;;;11.57;3.43;;;1.50;99.90;;;;;;4428860;28;658224;-77
2023/12/22 08:50:56;;;;;;;8.03;3.30;;;1.50;99.90;;;;;;4412234;28;659058;-76
2023/12/22 08:53:43;;;;;;;11.23;3.47;;;1.60;99.90;;;;;;4397227;28;656457;-76
2023/12/22 08:56:30;;;;;;;6.17;2.67;;;1.50;99.90;;;;;;4427774;28;657847;-76
2023/12/22 08:59:17;;;;;;;8.77;2.40;;;1.40;99.90;;;;;;4402532;28;660009;-76
2023/12/22 09:02:05;;;;;;;7.77;2.73;;;1.30;99.90;;;;;;4427784;28;656992;-77
2023/12/22 09:04:53;;;;;;;7.17;2.40;;;1.10;99.90;;;;;;4404518;28;657009;-77
2023/12/22 09:07:41;;;;;;;1.90;0.73;;;1.00;99.90;;;;;;4421548;28;657417;-76
2023/12/22 09:10:29;;;;;;;9.60;1.37;;;0.90;99.90;;;;;;4410400;28;656273;-76
2023/12/22 09:13:16;;;;;;;8.00;2.10;;;0.80;99.90;;;;;;4433815;28;656378;-76
2023/12/22 09:16:03;;;;;;;10.00;3.33;;;0.80;99.90;;;;;;4394127;28;656631;-76
2023/12/22 09:18:51;;;;;;;10.63;3.53;;;0.90;99.90;;;;;;4424409;28;658485;-77
2023/12/22 09:21:38;;;;;;;5.57;2.00;;;0.90;99.90;;;;;;4399846;28;657235;-77
2023/12/22 09:24:26;;;;;;;11.40;1.63;;;0.90;99.90;;;;;;4430943;28;657203;-77
2023/12/22 09:27:14;;;;;;;11.17;3.27;;;1.00;99.90;;;;;;4406007;28;657373;-77
2023/12/22 09:30:01;;;;;;;15.10;4.10;;;1.10;99.90;;;;;;4422625;28;657654;-76
2023/12/22 09:32:48;;;;;;;9.87;4.17;;;1.10;99.90;;;;;;4406007;28;657448;-77
2023/12/22 09:35:35;;;;;;;12.17;3.83;;;1.10;99.90;;;;;;4419106;28;657308;-76
2023/12/22 09:38:23;;;;;;;7.38;3.30;;;1.10;99.90;;;;;;4399316;28;658183;-76
2023/12/22 09:41:12;;;;;;;7.93;2.78;;;1.40;99.90;;;;;;4425343;28;657587;-76
2023/12/22 09:43:59;;;;;;;6.03;2.03;;;1.50;99.90;;;;;;4397968;28;657089;-77
2023/12/22 09:46:47;;;;;;;14.33;4.30;;;1.40;99.90;;;;;;4430170;28;657057;-76
2023/12/22 09:49:34;;;;;;;9.03;3.43;;;1.30;99.90;;;;;;4399239;28;658106;-77
2023/12/22 09:52:21;;;;;;;8.07;2.73;;;1.30;99.90;;;;;;4423312;28;655820;-76
2023/12/22 09:55:09;;;;;;;9.63;2.33;;;1.30;99.90;;;;;;4403017;28;656994;-76
2023/12/22 09:57:58;;;;;;;7.88;3.58;;;1.20;99.90;;;;;;4429622;28;656266;-76
2023/12/22 10:00:45;;;;;;;11.83;3.70;;;1.10;99.90;;;;;;4396938;28;656597;-76
2023/12/22 10:03:34;;;;;;;12.40;3.43;;;1.30;99.90;;;;;;4400013;28;657468;-77
2023/12/22 10:06:21;;;;;;;16.77;3.77;;;1.20;99.90;;;;;;4418268;28;657266;-77
2023/12/22 10:09:11;;;;;;;6.70;2.97;;;1.20;99.90;;;;;;4401533;28;657273;-76
2023/12/22 10:11:58;;;;;;;14.40;3.73;;;1.20;99.90;;;;;;4408991;28;656719;-77
2023/12/22 10:14:47;;;;;;;8.30;3.10;;;1.20;99.90;;;;;;4430515;28;657582;-77
2023/12/22 10:17:34;;;;;;;8.77;2.33;;;1.30;99.90;;;;;;4401826;28;657624;-78
2023/12/22 10:20:22;;;;;;;10.35;3.30;;;1.50;99.90;;;;;;4401163;28;656429;-77
2023/12/22 10:23:10;;;;;;;7.27;2.73;;;1.90;99.90;;;;;;4427881;28;658353;-77
2023/12/22 10:25:59;;;;;;;5.90;1.80;;;2.20;99.90;;;;;;4422662;28;657236;-77
2023/12/22 10:28:48;;;;;;;6.40;2.17;;;2.20;99.90;;;;;;4422600;28;657366;-77
2023/12/22 10:31:41;;;;;;;7.50;2.30;;;2.60;99.90;;;;;;4407550;28;657325;-78
2023/12/22 10:34:28;;;;;;;5.47;2.00;;;2.50;99.90;;;;;;4406374;28;656985;-77
2023/12/22 10:37:15;;;;;;;10.83;2.40;;;2.50;99.90;;;;;;4425588;28;657551;-78
2023/12/22 10:40:05;;;;;;;7.57;2.23;;;2.60;99.90;;;;;;4399514;28;657828;-77
2023/12/22 10:42:52;;;;;;;12.67;3.10;;;2.50;99.90;;;;;;4410712;28;656887;-75
2023/12/22 10:45:41;;;;;;;11.43;3.07;;;2.20;99.90;;;;;;4428267;28;657993;-78
2023/12/22 10:48:29;;;;;;;9.23;2.43;;;2.40;99.90;;;;;;4403954;28;657538;-78
2023/12/22 10:51:18;;;;;;;13.10;3.37;;;2.40;99.90;;;;;;4428064;28;656483;-78
2023/12/22 10:54:05;;;;;;;21.63;3.50;;;2.10;99.90;;;;;;4405706;28;658095;-77
2023/12/22 10:56:53;;;;;;;10.97;3.10;;;2.10;99.90;;;;;;4404432;28;657834;-77
2023/12/22 10:59:45;;;;;;;9.50;3.20;;;2.10;99.90;;;;;;4427186;28;657254;-78
2023/12/22 11:02:32;;;;;;;17.27;3.03;;;2.00;99.90;;;;;;4403113;28;656536;-76
2023/12/22 11:05:21;;;;;;;9.27;2.40;;;1.90;99.90;;;;;;4424302;28;658203;-79
2023/12/22 11:08:08;;;;;;;11.00;2.87;;;1.80;99.90;;;;;;4402374;28;656697;-78
2023/12/22 11:10:58;;;;;;;6.60;2.17;;;1.60;99.90;;;;;;4430540;28;658288;-78
2023/12/22 11:13:45;;;;;;;5.17;2.00;;;1.20;99.90;;;;;;4401363;28;656764;-78
2023/12/22 11:16:35;;;;;;;7.78;2.15;;;1.00;99.90;;;;;;4402675;28;656242;-77
2023/12/22 11:19:22;;;;;;;8.33;3.07;;;0.80;99.90;;;;;;4429085;28;656039;-78
2023/12/22 11:22:10;;;;;;;7.53;2.33;;;0.70;99.90;;;;;;4410496;28;657017;-78
2023/12/22 11:24:58;;;;;;;4.60;2.57;;;0.70;99.90;;;;;;4403562;28;656552;-78
2023/12/22 11:27:45;;;;;;;6.43;1.20;;;0.70;99.90;;;;;;4430276;28;657714;-78
2023/12/22 11:30:32;;;;;;;7.83;3.30;;;0.70;99.90;;;;;;4409946;28;656319;-78
2023/12/22 11:33:19;;;;;;;8.33;3.10;;;0.70;99.90;;;;;;4427648;28;656451;-79
2023/12/22 11:36:07;;;;;;;6.67;2.93;;;0.90;99.90;;;;;;4429163;28;655749;-78
2023/12/22 11:38:56;;;;;;;9.07;3.83;;;0.90;99.90;;;;;;4400798;28;657174;-79
2023/12/22 11:41:43;;;;;;;8.73;4.07;;;0.90;99.90;;;;;;4400431;28;658334;-79
2023/12/22 11:44:30;;;;;;;1.60;1.07;;;0.80;99.90;;;;;;4428242;28;657080;-79
2023/12/22 11:47:17;;;;;;;13.10;4.20;;;0.90;99.90;;;;;;4410360;28;656608;-77
2023/12/22 11:50:07;;;;;;;9.40;4.33;;;0.80;99.90;;;;;;4417285;28;658652;-78
2023/12/22 11:52:54;;;;;;;12.07;4.30;;;0.90;99.90;;;;;;4416096;28;656615;-78
2023/12/22 11:56:02;;;;;;;7.67;3.40;;;1.00;99.90;;;;;;4427627;28;657923;-78
2023/12/22 11:58:53;;;;;;;14.13;4.80;;;0.90;99.90;;;;;;4408634;28;656508;-78
2023/12/22 12:01:40;;;;;;;5.30;2.60;;;1.00;99.90;;;;;;4394793;28;658650;-79
2023/12/22 12:04:28;;;;;;;15.80;3.43;;;1.00;99.90;;;;;;4398528;28;658030;-77
2023/12/22 12:07:44;;;;;;;1.23;1.03;;;1.10;99.90;;;;;;4408599;28;658486;-78
2023/12/22 12:10:53;;;;;;;8.77;3.30;;;1.20;99.90;;;;;;4381106;28;657073;-79
2023/12/22 12:13:45;;;;;;;4.97;2.67;;;1.30;99.90;;;;;;4393261;28;657650;-79
2023/12/22 12:16:32;;;;;;;13.40;4.20;;;1.30;99.90;;;;;;4376135;28;657230;-77
2023/12/22 12:19:20;;;;;;;3.13;1.53;;;1.20;99.90;;;;;;4422157;28;657738;-78
2023/12/22 12:22:08;;;;;;;7.83;2.70;;;1.20;99.90;;;;;;4418485;28;656543;-78
2023/12/22 12:24:55;;;;;;;9.80;3.63;;;1.30;99.90;;;;;;4421893;28;657465;-79
2023/12/22 12:27:43;;;;;;;6.97;3.20;;;1.30;99.90;;;;;;4401770;28;656835;-78
2023/12/22 12:30:31;;;;;;;8.60;2.63;;;1.40;99.90;;;;;;4408166;28;656959;-78
2023/12/22 12:33:18;;;;;;;4.17;1.63;;;1.50;99.90;;;;;;4395559;28;656357;-77
2023/12/22 12:36:06;;;;;;;7.23;2.87;;;1.60;99.90;;;;;;4402694;28;656574;-79
2023/12/22 12:38:55;;;;;;;6.40;2.50;;;1.80;99.90;;;;;;4378506;28;656447;-80
2023/12/22 12:41:44;;;;;;;8.73;2.10;;;1.60;99.90;;;;;;4375299;28;656632;-78
2023/12/22 12:44:32;;;;;;;9.93;2.77;;;1.60;99.90;;;;;;4398939;28;656385;-78
2023/12/22 12:47:20;;;;;;;13.87;2.83;;;1.70;99.90;;;;;;4379554;28;656825;-79
2023/12/22 12:50:08;;;;;;;9.83;1.93;;;1.70;99.90;;;;;;4375314;28;658142;-77
2023/12/22 12:52:56;;;;;;;5.53;1.77;;;1.70;99.90;;;;;;4413278;28;657860;-81
2023/12/22 12:55:43;;;;;;;10.30;3.27;;;1.70;99.90;;;;;;4398522;28;656903;-81
2023/12/22 12:58:31;;;;;;;5.40;1.73;;;1.70;99.90;;;;;;4403961;28;657672;-82
2023/12/22 13:01:18;;;;;;;2.37;0.87;;;1.70;99.90;;;;;;4383811;28;656973;-81
2023/12/22 13:04:07;;;;;;;7.90;2.70;;;1.80;99.90;;;;;;4397099;28;657581;-79
2023/12/22 13:06:56;;;;;;;3.60;1.53;;;1.80;99.90;;;;;;4388324;28;658190;-81
2023/12/22 13:09:44;;;;;;;6.53;1.57;;;1.70;99.90;;;;;;4379533;28;656783;-80
2023/12/22 13:12:33;;;;;;;4.80;1.53;;;1.70;99.90;;;;;;4408379;28;656712;-80
2023/12/22 13:15:20;;;;;;;3.90;1.17;;;1.80;99.90;;;;;;4383382;28;657105;-78
2023/12/22 13:18:07;;;;;;;2.88;1.35;;;1.80;99.90;;;;;;4386275;28;656793;-77
2023/12/22 13:20:56;;;;;;;7.33;1.50;;;1.80;99.90;;;;;;4988451;28;554322;-80
2023/12/22 13:23:43;;;;;;;2.57;1.23;;;1.80;99.90;;;;;;4936965;28;534270;-79
2023/12/22 13:26:30;;;;;;;2.53;1.07;;;1.50;99.90;;;;;;4606040;28;658064;-81
2023/12/22 13:29:18;;;;;;;5.50;2.03;;;1.50;99.90;;;;;;4843045;28;533269;-78
2023/12/22 13:32:05;;;;;;;3.07;1.53;;;2.30;99.90;;;;;;4413816;28;657374;-77
2023/12/22 13:34:53;;;;;;;7.65;1.77;;;2.70;99.90;;;;;;4456602;28;656904;-77
2023/12/22 13:37:45;;;;;;;7.57;1.63;;;2.80;99.90;;;;;;4425230;28;656632;-77
2023/12/22 13:40:32;;;;;;;7.00;1.70;;;2.90;99.90;;;;;;4394931;28;656951;-76
2023/12/22 13:43:19;;;;;;;6.33;1.90;;;2.60;99.90;;;;;;4423340;28;656380;-77
2023/12/22 13:46:07;;;;;;;4.53;1.33;;;2.30;99.90;;;;;;4428463;28;657153;-78
2023/12/22 13:48:54;;;;;;;4.70;1.40;;;2.20;99.90;;;;;;4402699;28;657506;-78
2023/12/22 13:51:42;;;;;;;4.60;1.40;;;2.30;99.90;;;;;;4425931;28;656304;-78
2023/12/22 13:54:34;;;;;;;3.57;1.00;;;2.30;99.90;;;;;;4397262;28;657069;-79
2023/12/22 13:57:22;;;;;;;2.07;0.80;;;2.20;99.90;;;;;;4404435;28;657013;-78
2023/12/22 14:00:29;;;;;;;6.90;1.60;;;2.20;99.90;;;;;;4404278;28;656547;-78
2023/12/22 14:03:17;;;;;;;1.40;0.53;;;2.10;99.90;;;;;;4400091;28;656783;-78
2023/12/22 14:06:07;;;;;;;2.23;1.00;;;2.00;99.90;;;;;;4405873;28;657938;-78
2023/12/22 14:08:55;;;;;;;4.40;0.90;;;2.10;99.90;;;;;;4401673;28;658361;-77
2023/12/22 14:11:43;;;;;;;6.77;1.23;;;2.10;99.90;;;;;;4431973;28;657215;-78
2023/12/22 14:14:32;;;;;;;6.70;1.60;;;2.10;99.90;;;;;;4407136;28;657040;-78
2023/12/22 14:17:19;;;;;;;4.67;1.53;;;2.00;99.90;;;;;;4403218;28;657023;-76
2023/12/22 14:20:09;;;;;;;10.30;1.30;;;2.10;99.90;;;;;;4425386;28;657096;-77
2023/12/22 14:22:56;;;;;;;4.17;1.20;;;2.00;99.90;;;;;;4404703;28;657537;-78
2023/12/22 14:25:43;;;;;;;6.33;1.60;;;2.00;99.90;;;;;;4414526;28;656434;-77
2023/12/22 14:28:32;;;;;;;6.95;1.38;;;2.00;99.90;;;;;;4426138;28;657453;-77
2023/12/22 14:31:21;;;;;;;4.10;1.53;;;2.00;99.90;;;;;;4397692;28;657426;-77
2023/12/22 14:34:08;;;;;;;6.10;1.60;;;1.90;99.90;;;;;;4403180;28;657525;-76